createdAt,value
2022-10-19T00:01:55.752Z,58.37
2022-10-19T00:04:29.056Z,59.88
2022-10-19T00:07:00.720Z,64.60
2022-10-19T00:09:32.374Z,66.05
2022-10-19T00:12:04.096Z,64.66
2022-10-19T00:14:35.903Z,63.52
2022-10-19T00:17:07.696Z,62.98
2022-10-19T00:19:39.443Z,62.66
2022-10-19T00:22:13.185Z,62.26
2022-10-19T00:24:46.231Z,61.95
2022-10-19T00:27:20.069Z,61.60
2022-10-19T00:29:52.002Z,61.08
2022-10-19T00:32:23.809Z,61.01
2022-10-19T00:34:55.547Z,61.20
2022-10-19T00:37:27.359Z,60.68
2022-10-19T00:39:59.065Z,60.60
2022-10-19T00:42:30.912Z,60.47
2022-10-19T00:45:16.083Z,61.03
2022-10-19T00:47:48.266Z,60.92
2022-10-19T00:50:20.365Z,60.28
2022-10-19T00:52:52.043Z,60.45
2022-10-19T00:55:24.381Z,60.15
2022-10-19T00:57:56.451Z,60.00
2022-10-19T01:00:28.698Z,59.82
2022-10-19T01:03:01.173Z,60.04
2022-10-19T01:05:33.730Z,60.19
2022-10-19T01:08:07.190Z,60.05
2022-10-19T01:10:48.251Z,60.09
2022-10-19T01:13:35.825Z,60.01
2022-10-19T01:16:16.447Z,59.87
2022-10-19T01:18:55.919Z,59.98
2022-10-19T01:21:29.835Z,60.14
2022-10-19T01:24:27.546Z,60.21
2022-10-19T01:27:33.634Z,60.09
2022-10-19T01:30:09.797Z,60.10
2022-10-19T01:33:03.620Z,60.40
2022-10-19T01:35:41.368Z,60.74
2022-10-19T01:38:23.617Z,60.82
2022-10-19T01:41:03.611Z,60.68
2022-10-19T01:43:43.319Z,60.46
2022-10-19T01:46:20.538Z,60.35
2022-10-19T01:48:57.737Z,60.39
2022-10-19T01:51:33.262Z,60.47
2022-10-19T01:54:09.645Z,60.38
2022-10-19T01:56:44.370Z,60.31
2022-10-19T01:59:19.371Z,60.55
2022-10-19T02:01:54.736Z,60.42
2022-10-19T02:04:27.720Z,60.54
2022-10-19T02:07:00.247Z,60.44
2022-10-19T02:09:32.142Z,60.49
2022-10-19T02:12:07.823Z,60.57
2022-10-19T02:14:44.289Z,60.58
2022-10-19T02:17:19.283Z,60.55
2022-10-19T02:19:51.015Z,60.57
2022-10-19T02:22:24.116Z,60.60
2022-10-19T02:24:55.915Z,61.00
2022-10-19T02:27:27.940Z,61.04
2022-10-19T02:29:59.617Z,61.08
2022-10-19T02:32:31.442Z,61.15
2022-10-19T02:35:03.531Z,61.01
2022-10-19T02:40:10.180Z,61.12
2022-10-19T02:42:46.460Z,60.81
2022-10-19T02:45:24.003Z,60.88
2022-10-19T02:48:00.016Z,60.87
2022-10-19T02:50:32.177Z,60.78
2022-10-19T02:53:04.053Z,60.78
2022-10-19T02:55:35.846Z,60.76
2022-10-19T02:58:07.553Z,60.64
2022-10-19T03:00:39.369Z,60.78
2022-10-19T03:03:11.940Z,60.96
2022-10-19T03:05:43.709Z,60.77
2022-10-19T03:08:15.439Z,60.70
2022-10-19T03:10:47.091Z,60.91
2022-10-19T03:13:19.205Z,60.75
2022-10-19T03:15:51.355Z,60.93
2022-10-19T03:18:22.990Z,60.69
2022-10-19T03:21:04.503Z,60.95
2022-10-19T03:23:36.551Z,60.71
2022-10-19T03:26:12.185Z,61.01
2022-10-19T03:28:44.537Z,61.01
2022-10-19T03:31:16.471Z,60.94
2022-10-19T03:33:48.236Z,61.13
2022-10-19T03:36:23.990Z,60.84
2022-10-19T03:38:56.842Z,60.76
2022-10-19T03:41:30.432Z,60.88
2022-10-19T03:44:02.459Z,60.87
2022-10-19T03:46:34.604Z,60.72
2022-10-19T03:49:06.656Z,60.40
2022-10-19T03:51:38.865Z,60.44
2022-10-19T03:54:13.546Z,60.24
2022-10-19T03:56:45.459Z,60.08
2022-10-19T03:59:17.943Z,59.90
2022-10-19T04:01:49.645Z,60.08
2022-10-19T04:04:22.330Z,59.86
2022-10-19T04:06:54.475Z,59.91
2022-10-19T04:09:26.165Z,60.07
2022-10-19T04:11:57.778Z,60.11
2022-10-19T04:14:32.664Z,59.99
2022-10-19T04:17:06.194Z,60.02
2022-10-19T04:19:37.843Z,60.24
2022-10-19T04:22:09.553Z,60.51
2022-10-19T04:24:41.184Z,60.26
2022-10-19T04:27:12.851Z,60.14
2022-10-19T04:29:44.874Z,60.31
2022-10-19T04:32:16.571Z,60.34
2022-10-19T04:34:48.214Z,60.44
2022-10-19T04:37:19.847Z,60.37
2022-10-19T04:39:51.498Z,60.38
2022-10-19T04:42:23.181Z,60.24
2022-10-19T04:44:55.238Z,60.35
2022-10-19T04:47:26.924Z,60.22
2022-10-19T04:49:58.681Z,60.36
2022-10-19T04:52:31.208Z,60.14
2022-10-19T04:55:02.947Z,60.29
2022-10-19T04:57:34.851Z,60.62
2022-10-19T05:00:08.321Z,60.55
2022-10-19T05:02:43.248Z,60.61
2022-10-19T05:05:15.533Z,60.65
2022-10-19T05:07:50.043Z,60.83
2022-10-19T05:10:22.092Z,60.68
2022-10-19T05:12:53.980Z,60.67
2022-10-19T05:15:25.768Z,60.32
2022-10-19T05:17:57.410Z,60.25
2022-10-19T05:20:29.359Z,60.43
2022-10-19T05:23:06.205Z,60.31
2022-10-19T05:25:39.205Z,59.92
2022-10-19T05:28:11.017Z,60.00
2022-10-19T05:30:46.669Z,59.84
2022-10-19T05:33:21.315Z,59.86
2022-10-19T05:35:53.520Z,59.95
2022-10-19T05:38:25.378Z,60.07
2022-10-19T05:40:57.303Z,60.12
2022-10-19T05:43:29.118Z,59.91
2022-10-19T05:46:06.116Z,59.84
2022-10-19T05:48:37.942Z,59.76
2022-10-19T05:51:12.759Z,59.77
2022-10-19T05:53:44.659Z,59.53
2022-10-19T05:56:19.353Z,58.57
2022-10-19T05:58:52.239Z,57.26
2022-10-19T06:01:24.351Z,59.44
2022-10-19T06:03:58.950Z,63.62
2022-10-19T06:06:31.942Z,65.13
2022-10-19T06:09:04.598Z,63.99
2022-10-19T06:11:39.239Z,62.76
2022-10-19T06:14:13.083Z,61.91
2022-10-19T06:16:46.943Z,61.28
2022-10-19T06:19:18.795Z,60.56
2022-10-19T06:21:51.166Z,59.89
2022-10-19T06:24:23.196Z,58.25
2022-10-19T06:26:55.011Z,57.67
2022-10-19T06:29:26.988Z,59.47
2022-10-19T06:32:00.318Z,63.28
2022-10-19T06:34:32.343Z,64.92
2022-10-19T06:37:04.213Z,63.29
2022-10-19T06:39:36.260Z,61.99
2022-10-19T06:42:09.780Z,61.18
2022-10-19T06:44:41.501Z,60.62
2022-10-19T06:47:13.306Z,60.09
2022-10-19T06:49:46.135Z,59.91
2022-10-19T06:52:18.129Z,57.89
2022-10-19T06:54:49.985Z,58.15
2022-10-19T06:57:23.284Z,59.72
2022-10-19T06:59:55.019Z,60.69
2022-10-19T07:02:27.322Z,63.65
2022-10-19T07:05:01.151Z,64.45
2022-10-19T07:07:36.563Z,62.63
2022-10-19T07:10:09.779Z,61.00
2022-10-19T07:12:41.766Z,59.80
2022-10-19T07:15:14.617Z,57.37
2022-10-19T07:17:46.418Z,56.77
2022-10-19T07:20:18.439Z,57.71
2022-10-19T07:22:50.368Z,59.10
2022-10-19T07:25:22.182Z,59.81
2022-10-19T07:27:54.246Z,61.01
2022-10-19T07:30:26.313Z,61.31
2022-10-19T07:32:57.968Z,64.19
2022-10-19T07:35:29.787Z,64.19
2022-10-19T07:38:01.502Z,62.18
2022-10-19T07:40:33.461Z,58.77
2022-10-19T07:43:05.535Z,56.26
2022-10-19T07:45:37.593Z,56.50
2022-10-19T07:48:09.709Z,57.39
2022-10-19T07:50:41.523Z,57.67
2022-10-19T07:53:13.459Z,58.00
2022-10-19T07:55:45.298Z,58.97
2022-10-19T07:58:17.224Z,59.52
2022-10-19T08:00:49.102Z,59.84
2022-10-19T08:06:14.995Z,60.15
2022-10-19T08:08:47.344Z,59.58
2022-10-19T08:11:21.976Z,59.77
2022-10-19T08:13:54.967Z,59.85
2022-10-19T08:16:29.200Z,59.81
2022-10-19T08:19:02.234Z,59.83
2022-10-19T08:21:34.230Z,60.14
2022-10-19T08:24:06.557Z,60.13
2022-10-19T08:26:40.669Z,60.16
2022-10-19T08:29:14.433Z,60.75
2022-10-19T08:31:47.981Z,60.89
2022-10-19T08:34:19.822Z,61.12
2022-10-19T08:36:51.544Z,61.44
2022-10-19T08:39:23.604Z,62.03
2022-10-19T08:42:03.574Z,63.91
2022-10-19T08:44:54.961Z,64.05
2022-10-19T08:47:39.910Z,60.83
2022-10-19T08:50:21.378Z,57.10
2022-10-19T08:53:01.920Z,55.43
2022-10-19T08:55:43.270Z,55.92
2022-10-19T08:58:30.374Z,57.24
2022-10-19T09:01:08.244Z,57.55
2022-10-19T09:03:55.504Z,57.04
2022-10-19T09:06:33.764Z,56.23
2022-10-19T09:09:04.707Z,56.49
2022-10-19T09:11:40.560Z,57.06
2022-10-19T09:14:19.549Z,57.76
2022-10-19T09:16:51.466Z,57.65
2022-10-19T09:19:30.271Z,57.74
2022-10-19T09:22:07.327Z,58.27
2022-10-19T09:24:48.623Z,58.78
2022-10-19T09:27:24.659Z,59.42
2022-10-19T09:29:59.636Z,59.55
2022-10-19T09:32:36.348Z,59.65
2022-10-19T09:35:23.055Z,59.72
2022-10-19T09:37:55.954Z,60.15
2022-10-19T09:40:30.799Z,60.26
2022-10-19T09:43:18.709Z,60.61
2022-10-19T09:45:55.446Z,60.98
2022-10-19T09:48:33.253Z,61.49
2022-10-19T09:51:05.116Z,61.94
2022-10-19T09:53:37.326Z,61.72
2022-10-19T09:56:18.443Z,64.17
2022-10-19T09:58:52.834Z,64.46
2022-10-19T10:01:41.941Z,63.46
2022-10-19T10:04:18.093Z,59.75
2022-10-19T10:06:51.075Z,54.96
2022-10-19T10:09:27.403Z,54.10
2022-10-19T10:12:01.956Z,55.03
2022-10-19T10:14:39.701Z,55.89
2022-10-19T10:17:19.172Z,56.74
2022-10-19T10:20:06.524Z,57.51
2022-10-19T10:22:39.059Z,58.26
2022-10-19T10:25:19.040Z,58.36
2022-10-19T10:28:02.201Z,58.54
2022-10-19T10:30:37.727Z,59.42
2022-10-19T10:33:26.950Z,59.66
2022-10-19T10:36:11.066Z,59.31
2022-10-19T10:38:47.728Z,59.55
2022-10-19T10:41:24.069Z,58.80
2022-10-19T10:44:02.280Z,59.05
2022-10-19T10:46:40.941Z,59.05
2022-10-19T10:49:22.637Z,58.92
2022-10-19T10:51:57.943Z,58.56
2022-10-19T10:54:31.550Z,58.20
2022-10-19T10:57:12.372Z,58.05
2022-10-19T10:59:53.272Z,57.72
2022-10-19T11:02:42.757Z,57.28
2022-10-19T11:05:21.763Z,57.28
2022-10-19T11:07:56.650Z,57.62
2022-10-19T11:10:32.303Z,57.95
2022-10-19T11:13:13.246Z,58.21
2022-10-19T11:15:54.847Z,58.59
2022-10-19T11:18:31.015Z,58.86
2022-10-19T11:21:10.831Z,58.69
2022-10-19T11:23:55.357Z,58.96
2022-10-19T11:26:42.473Z,58.86
2022-10-19T11:29:29.061Z,58.76
2022-10-19T11:32:00.915Z,58.52
2022-10-19T11:34:54.227Z,58.38
2022-10-19T11:37:34.718Z,57.35
2022-10-19T11:40:22.285Z,56.68
2022-10-19T11:43:05.021Z,56.25
2022-10-19T11:45:53.035Z,56.25
2022-10-19T11:48:43.830Z,56.21
2022-10-19T11:51:23.051Z,56.09
2022-10-19T11:54:05.385Z,55.63
2022-10-19T11:57:01.916Z,56.14
2022-10-19T11:59:44.973Z,56.55
2022-10-19T12:02:38.326Z,57.03
2022-10-19T12:05:14.920Z,57.44
2022-10-19T12:08:02.968Z,57.73
2022-10-19T12:10:44.231Z,57.10
2022-10-19T12:13:20.083Z,56.75
2022-10-19T12:15:54.079Z,56.57
2022-10-19T12:18:33.265Z,56.75
2022-10-19T12:21:10.912Z,56.72
2022-10-19T12:23:46.878Z,56.86
2022-10-19T12:26:21.050Z,56.92
2022-10-19T12:28:57.053Z,57.13
2022-10-19T12:31:30.796Z,57.04
2022-10-19T12:34:11.362Z,57.22
2022-10-19T12:36:51.523Z,57.27
2022-10-19T12:39:28.304Z,57.29
2022-10-19T12:42:10.651Z,57.40
2022-10-19T12:45:05.864Z,57.51
2022-10-19T12:47:37.873Z,57.42
2022-10-19T12:50:10.253Z,57.61
2022-10-19T12:52:45.611Z,57.78
2022-10-19T12:55:29.778Z,57.89
2022-10-19T12:58:05.717Z,57.97
2022-10-19T13:00:39.174Z,57.94
2022-10-19T13:03:25.086Z,58.09
2022-10-19T13:06:01.211Z,58.22
2022-10-19T13:08:37.905Z,58.40
2022-10-19T13:11:14.885Z,58.52
2022-10-19T13:14:04.207Z,58.62
2022-10-19T13:17:00.246Z,58.82
2022-10-19T13:19:32.402Z,58.99
2022-10-19T13:22:28.060Z,58.88
2022-10-19T13:25:27.167Z,58.90
2022-10-19T13:28:03.717Z,58.86
2022-10-19T13:31:07.001Z,59.08
2022-10-19T13:33:48.574Z,59.26
2022-10-19T13:36:21.543Z,59.57
2022-10-19T13:39:16.661Z,59.74
2022-10-19T13:41:53.071Z,59.81
2022-10-19T13:44:28.481Z,59.89
2022-10-19T13:47:22.159Z,59.99
2022-10-19T13:50:16.480Z,60.23
2022-10-19T13:53:21.916Z,60.37
2022-10-19T13:56:17.965Z,60.57
2022-10-19T13:59:28.165Z,60.62
2022-10-19T14:02:23.772Z,60.95
2022-10-19T14:05:12.211Z,61.02
2022-10-19T14:07:56.180Z,61.23
2022-10-19T14:10:33.056Z,61.44
2022-10-19T14:13:06.825Z,61.66
2022-10-19T14:15:38.655Z,61.68
2022-10-19T14:18:26.454Z,61.89
2022-10-19T14:21:03.029Z,62.06
2022-10-19T14:23:36.467Z,64.10
2022-10-19T14:26:14.867Z,63.71
2022-10-19T14:28:46.882Z,61.55
2022-10-19T14:31:24.166Z,60.50
2022-10-19T14:34:00.895Z,59.86
2022-10-19T14:36:37.424Z,57.76
2022-10-19T14:39:09.840Z,57.01
2022-10-19T14:41:41.513Z,57.77
2022-10-19T14:44:33.989Z,58.64
2022-10-19T14:47:16.970Z,59.96
2022-10-19T14:49:49.134Z,60.93
2022-10-19T14:55:12.675Z,64.43
2022-10-19T14:57:51.469Z,66.18
2022-10-19T15:03:06.215Z,61.82
2022-10-19T15:05:42.585Z,61.03
2022-10-19T15:08:25.511Z,58.49
2022-10-19T15:10:57.463Z,57.33
2022-10-19T15:13:33.033Z,58.72
2022-10-19T15:16:04.856Z,60.14
2022-10-19T15:18:56.113Z,63.30
2022-10-19T15:21:29.466Z,64.48
2022-10-19T15:24:22.771Z,63.29
2022-10-19T15:27:08.706Z,61.52
2022-10-19T15:29:40.969Z,61.50
2022-10-19T15:32:24.959Z,61.95
2022-10-19T15:34:57.418Z,61.72
2022-10-19T15:37:29.141Z,61.51
2022-10-19T15:40:09.494Z,61.71
2022-10-19T15:42:44.457Z,61.10
2022-10-19T15:45:34.168Z,61.23
2022-10-19T15:48:29.705Z,61.12
2022-10-19T15:51:01.405Z,61.32
2022-10-19T15:53:33.122Z,61.20
2022-10-19T15:56:04.818Z,61.38
2022-10-19T15:58:36.527Z,62.69
2022-10-19T16:01:16.025Z,63.44
2022-10-19T16:03:48.367Z,63.60
2022-10-19T16:06:21.263Z,64.94
2022-10-19T16:08:54.317Z,65.43
2022-10-19T16:11:30.291Z,65.67
2022-10-19T16:14:02.228Z,65.74
2022-10-19T16:16:35.451Z,66.24
2022-10-19T16:19:07.379Z,66.30
2022-10-19T16:21:39.428Z,66.23
2022-10-19T16:24:11.097Z,66.18
2022-10-19T16:26:42.822Z,65.71
2022-10-19T16:29:14.568Z,65.76
2022-10-19T16:31:48.661Z,65.81
2022-10-19T16:34:20.635Z,65.96
2022-10-19T16:36:52.490Z,66.07
2022-10-19T16:39:25.603Z,66.65
2022-10-19T16:41:57.357Z,66.72
2022-10-19T16:44:31.483Z,66.54
2022-10-19T16:47:03.167Z,66.07
2022-10-19T16:49:35.054Z,65.94
2022-10-19T16:52:07.117Z,66.27
2022-10-19T16:54:39.314Z,66.00
2022-10-19T16:57:11.043Z,65.77
2022-10-19T16:59:42.819Z,66.02
2022-10-19T17:02:14.895Z,65.70
2022-10-19T17:04:46.594Z,65.81
2022-10-19T17:07:19.376Z,65.40
2022-10-19T17:09:54.743Z,65.26
2022-10-19T17:12:26.731Z,65.54
2022-10-19T17:15:17.634Z,64.70
2022-10-19T17:17:50.631Z,64.98
2022-10-19T17:20:22.306Z,64.90
2022-10-19T17:22:55.582Z,64.03
2022-10-19T17:25:27.572Z,64.64
2022-10-19T17:27:59.634Z,65.01
2022-10-19T17:30:31.331Z,64.51
2022-10-19T17:33:02.997Z,64.95
2022-10-19T17:35:36.256Z,64.54
2022-10-19T17:38:07.949Z,64.11
2022-10-19T17:40:39.866Z,64.35
2022-10-19T17:43:11.865Z,64.48
2022-10-19T17:51:12.171Z,64.08
2022-10-19T17:53:45.281Z,64.75
2022-10-19T17:56:20.226Z,64.76
2022-10-19T17:58:52.593Z,64.23
2022-10-19T18:01:25.968Z,63.64
2022-10-19T18:03:58.320Z,63.64
2022-10-19T18:06:32.500Z,63.57
2022-10-19T18:09:06.887Z,63.34
2022-10-19T18:11:41.329Z,63.22
2022-10-19T18:14:14.098Z,63.19
2022-10-19T18:16:47.653Z,63.25
2022-10-19T18:19:19.337Z,63.09
2022-10-19T18:21:51.126Z,62.90
2022-10-19T18:24:23.133Z,62.39
2022-10-19T18:26:54.976Z,62.17
2022-10-19T18:32:13.912Z,62.01
2022-10-19T18:34:45.709Z,61.97
2022-10-19T18:37:17.613Z,61.96
2022-10-19T18:39:49.377Z,61.90
2022-10-19T18:42:21.015Z,61.53
2022-10-19T18:44:52.682Z,61.16
2022-10-19T18:47:24.373Z,60.89
2022-10-19T18:49:56.841Z,60.62
2022-10-19T18:52:28.582Z,60.65
2022-10-19T18:55:00.249Z,60.34
2022-10-19T18:57:32.093Z,60.59
2022-10-19T19:00:03.902Z,60.78
2022-10-19T19:02:46.303Z,60.61
2022-10-19T19:05:19.565Z,60.28
2022-10-19T19:07:51.680Z,60.06
2022-10-19T19:10:23.621Z,59.97
2022-10-19T19:12:55.437Z,59.95
2022-10-19T19:15:27.148Z,59.73
2022-10-19T19:17:58.896Z,58.08
2022-10-19T19:20:30.645Z,57.54
2022-10-19T19:23:02.476Z,59.35
2022-10-19T19:25:34.341Z,64.38
2022-10-19T19:28:06.070Z,66.74
2022-10-19T19:30:41.920Z,65.59
2022-10-19T19:33:14.454Z,64.56
2022-10-19T19:35:47.591Z,63.59
2022-10-19T19:38:19.445Z,62.70
2022-10-19T19:40:51.308Z,61.61
2022-10-19T19:43:23.065Z,61.17
2022-10-19T19:46:03.179Z,60.89
2022-10-19T19:48:38.118Z,60.47
2022-10-19T19:51:12.239Z,60.21
2022-10-19T19:53:44.326Z,59.99
2022-10-19T19:56:17.762Z,59.70
2022-10-19T19:58:49.620Z,57.46
2022-10-19T20:01:22.978Z,57.15
2022-10-19T20:03:54.739Z,59.23
2022-10-19T20:06:26.491Z,63.91
2022-10-19T20:08:58.547Z,66.57
2022-10-19T20:11:31.473Z,65.22
2022-10-19T20:14:03.175Z,64.36
2022-10-19T20:16:34.926Z,63.80
2022-10-19T20:19:10.171Z,63.13
2022-10-19T20:21:42.333Z,62.86
2022-10-19T20:24:14.087Z,62.55
2022-10-19T20:26:45.817Z,62.28
2022-10-19T20:29:17.622Z,62.07
2022-10-19T20:31:49.292Z,61.92
2022-10-19T20:34:23.111Z,61.79
2022-10-19T20:36:55.679Z,61.62
2022-10-19T20:39:27.446Z,61.60
2022-10-19T20:41:59.121Z,61.52
2022-10-19T20:44:30.776Z,61.62
2022-10-19T20:47:02.496Z,61.48
2022-10-19T20:49:34.292Z,61.46
2022-10-19T20:52:06.052Z,61.10
2022-10-19T20:54:38.068Z,60.97
2022-10-19T20:57:09.722Z,60.86
2022-10-19T20:59:41.405Z,61.02
2022-10-19T21:02:13.492Z,61.00
2022-10-19T21:04:45.229Z,60.83
2022-10-19T21:07:16.934Z,60.93
2022-10-19T21:09:48.720Z,61.04
2022-10-19T21:12:20.359Z,60.68
2022-10-19T21:14:52.014Z,60.47
2022-10-19T21:17:23.729Z,60.33
2022-10-19T21:19:57.311Z,60.16
2022-10-19T21:22:29.252Z,60.07
2022-10-19T21:25:00.981Z,59.79
2022-10-19T21:27:32.847Z,59.72
2022-10-19T21:30:05.080Z,59.62
2022-10-19T21:32:36.760Z,59.89
2022-10-19T21:35:09.444Z,58.99
2022-10-19T21:37:41.236Z,57.35
2022-10-19T21:40:13.861Z,58.78
2022-10-19T21:42:46.265Z,60.54
2022-10-19T21:45:29.831Z,64.67
2022-10-19T21:48:02.450Z,67.47
2022-10-19T21:50:34.171Z,66.92
2022-10-19T21:53:05.853Z,64.67
2022-10-19T21:55:37.760Z,63.49
2022-10-19T21:58:09.471Z,62.78
2022-10-19T22:00:41.350Z,62.53
2022-10-19T22:05:55.612Z,61.67
2022-10-19T22:08:27.499Z,61.43
2022-10-19T22:10:59.310Z,60.78
2022-10-19T22:13:30.987Z,60.76
2022-10-19T22:16:07.730Z,60.52
2022-10-19T22:18:39.712Z,60.47
2022-10-19T22:21:13.281Z,60.42
2022-10-19T22:23:45.948Z,60.04
2022-10-19T22:26:20.900Z,60.08
2022-10-19T22:28:52.854Z,60.43
2022-10-19T22:31:25.415Z,60.55
2022-10-19T22:33:57.480Z,60.16
2022-10-19T22:36:29.664Z,59.72
2022-10-19T22:39:01.412Z,59.72
2022-10-19T22:42:25.610Z,59.62
2022-10-19T22:45:16.323Z,59.94
2022-10-19T22:47:48.676Z,59.78
2022-10-19T22:50:21.049Z,59.56
2022-10-19T22:52:53.435Z,59.40
2022-10-19T22:55:26.186Z,57.55
2022-10-19T22:57:58.851Z,57.95
2022-10-19T23:00:31.563Z,59.69
2022-10-19T23:03:03.911Z,64.59
2022-10-19T23:05:36.240Z,68.02
2022-10-19T23:08:09.038Z,66.61
2022-10-19T23:10:41.331Z,65.12
2022-10-19T23:13:13.632Z,64.10
2022-10-19T23:15:46.355Z,63.42
2022-10-19T23:18:18.869Z,62.57
2022-10-19T23:20:58.353Z,61.96
2022-10-19T23:23:32.350Z,61.48
2022-10-19T23:26:06.509Z,60.97
2022-10-19T23:28:40.168Z,60.72
2022-10-19T23:31:14.687Z,60.54
2022-10-19T23:33:47.630Z,60.28
2022-10-19T23:36:22.142Z,59.84
2022-10-19T23:38:55.726Z,57.60
2022-10-19T23:41:27.866Z,56.76
2022-10-19T23:43:59.507Z,58.12
2022-10-19T23:46:31.281Z,59.82
2022-10-19T23:49:02.935Z,63.94
2022-10-19T23:51:34.712Z,67.66
2022-10-19T23:54:06.525Z,67.12
2022-10-19T23:56:38.411Z,65.61
2022-10-19T23:59:10.040Z,64.53
